Time;durP1;ratioP1;P1;durP2;ratioP2;P2;SDS_P1;SDS_P2;PMS_P1;PMS_P2;Temp;Humidity;BMP_temperature;BMP_pressure;BME280_temperature;BME280_humidity;BME280_pressure;Samples;Min_cycle;Max_cycle;Signal;HPM_P1;HPM_P2
2022/01/15 13:02:17;;;;;;;16.20;4.67;;;;;;;-143.84;35.61;45167.13;5086077;28;20457;-70
2022/01/15 13:04:54;;;;;;;7.30;4.87;;;;;;;-143.84;35.80;45165.22;5086048;28;20453;-70
2022/01/15 13:07:21;;;;;;;6.80;5.47;;;;;;;-143.84;36.44;45157.59;5086162;28;20865;-72
2022/01/15 13:09:48;;;;;;;6.17;5.50;;;;;;;-143.84;37.72;45178.56;5088691;28;20935;-71
2022/01/15 13:12:15;;;;;;;7.50;5.80;;;;;;;-143.84;37.33;45172.84;5085886;28;20485;-71
2022/01/15 13:14:45;;;;;;;7.40;5.27;;;;;;;-143.84;37.19;45148.09;5088723;28;20848;-72
2022/01/15 13:17:27;;;;;;;5.07;4.57;;;;;;;-143.84;37.70;45189.97;5088560;28;20461;-71
2022/01/15 13:19:54;;;;;;;9.50;5.47;;;;;;;-143.84;38.34;45163.31;5085575;28;20503;-74
2022/01/15 13:22:23;;;;;;;6.70;4.83;;;;;;;-143.84;38.78;45163.31;5085663;28;20438;-72
2022/01/15 13:24:58;;;;;;;8.57;4.90;;;;;;;-143.84;38.53;45151.91;5086461;28;20892;-70
2022/01/15 13:27:25;;;;;;;8.33;5.50;;;;;;;-143.84;38.72;45167.13;5088449;28;20529;-71
2022/01/15 13:29:52;;;;;;;5.23;4.73;;;;;;;-143.84;39.52;45155.69;5086705;28;20790;-70
2022/01/15 13:32:23;;;;;;;8.47;5.83;;;;;;;-143.84;39.74;45170.94;5088657;28;20495;-71
2022/01/15 13:34:52;;;;;;;7.80;5.40;;;;;;;-143.84;40.22;45174.75;5087893;28;20612;-70
2022/01/15 13:37:21;;;;;;;15.23;6.33;;;;;;;-143.84;40.77;45195.69;5088584;28;20802;-70
2022/01/15 13:39:49;;;;;;;11.50;5.93;;;;;;;-143.84;40.80;45174.75;5088353;28;20451;-71
2022/01/15 13:42:21;;;;;;;8.53;5.60;;;;;;;-143.84;40.92;45167.13;5087675;28;20491;-70
2022/01/15 13:44:48;;;;;;;8.47;6.07;;;;;;;-143.84;41.73;45189.97;5086496;28;20443;-71
2022/01/15 13:47:16;;;;;;;9.00;6.60;;;;;;;-143.84;41.77;45153.81;5087713;28;20499;-73
2022/01/15 13:55:24;;;;;;;6.00;5.30;;;;;;;-143.84;41.96;45188.06;5086889;28;20495;-71
2022/01/15 13:57:51;;;;;;;8.93;6.37;;;;;;;-143.84;41.94;45186.16;5087787;28;20480;-71
2022/01/15 14:00:19;;;;;;;8.13;6.60;;;;;;;-143.84;41.30;45193.78;5087881;28;20480;-71
2022/01/15 14:02:50;;;;;;;8.93;6.43;;;;;;;-143.84;41.31;45184.25;5088145;28;20452;-70
2022/01/15 14:05:22;;;;;;;12.93;6.90;;;;;;;-143.84;41.95;45167.13;5086830;28;20441;-71
2022/01/15 14:07:51;;;;;;;12.10;6.13;;;;;;;-143.84;41.45;45161.41;5086922;28;20454;-71
2022/01/15 14:10:20;;;;;;;9.10;6.70;;;;;;;-143.84;41.28;45178.56;5088030;28;20449;-71
2022/01/15 14:12:58;;;;;;;9.73;5.73;;;;;;;-143.84;41.32;45148.09;5087536;28;20470;-71
2022/01/15 14:15:32;;;;;;;12.03;6.33;;;;;;;-143.84;42.12;45165.22;5088135;28;20968;-71
2022/01/15 14:18:07;;;;;;;8.03;6.40;;;;;;;-143.84;42.17;45161.41;5087894;28;20505;-71
2022/01/15 14:20:52;;;;;;;8.03;6.27;;;;;;;-143.84;42.38;45155.69;5087186;28;20441;-70
2022/01/15 14:23:33;;;;;;;8.40;6.40;;;;;;;-143.84;42.29;45172.84;5087846;28;21008;-70
2022/01/15 14:26:01;;;;;;;9.53;6.90;;;;;;;-143.84;42.76;45174.75;5086557;28;20454;-70
2022/01/15 14:28:28;;;;;;;6.63;5.97;;;;;;;-143.84;43.29;45150.00;5087511;28;21196;-70
2022/01/15 14:30:56;;;;;;;9.60;7.23;;;;;;;-143.84;43.84;45224.25;5087271;28;20928;-70
2022/01/15 14:33:24;;;;;;;8.63;6.40;;;;;;;-143.84;44.50;45163.31;5087672;28;20590;-71
2022/01/15 14:35:51;;;;;;;13.60;8.30;;;;;;;-143.84;44.76;45178.56;5087486;28;20949;-71
2022/01/15 14:38:18;;;;;;;10.30;6.67;;;;;;;-143.84;45.31;45180.47;5088012;28;20784;-70
2022/01/15 14:40:47;;;;;;;11.47;8.40;;;;;;;-143.84;46.08;45163.31;5087269;28;20605;-71
2022/01/15 14:43:14;;;;;;;10.10;7.00;;;;;;;-143.84;46.48;45184.25;5087267;28;20849;-71
2022/01/15 14:45:42;;;;;;;15.30;8.93;;;;;;;-143.84;46.93;45188.06;5086986;28;20889;-71
2022/01/15 14:48:09;;;;;;;10.03;7.90;;;;;;;-143.84;47.41;45186.16;5087340;28;20454;-71
2022/01/15 14:50:37;;;;;;;10.53;7.17;;;;;;;-143.84;47.44;45186.16;5087329;28;20448;-71
2022/01/15 14:53:04;;;;;;;11.40;7.53;;;;;;;-143.84;48.58;45189.97;5087502;28;20500;-72
2022/01/15 14:55:32;;;;;;;14.60;6.60;;;;;;;-143.84;47.76;45159.50;5087467;28;20544;-72
2022/01/15 14:58:00;;;;;;;9.27;7.27;;;;;;;-143.84;47.38;45178.56;5089968;28;20459;-70
2022/01/15 15:00:28;;;;;;;8.70;7.00;;;;;;;-143.84;46.43;45178.56;5090640;28;20488;-69
2022/01/15 15:02:55;;;;;;;9.20;6.60;;;;;;;-143.84;46.70;45169.03;5090725;28;20955;-69
2022/01/15 15:05:22;;;;;;;11.57;6.60;;;;;;;-143.84;46.51;45203.31;5089788;28;20467;-69
2022/01/15 15:07:49;;;;;;;9.90;6.83;;;;;;;-143.84;46.78;45163.31;5090341;28;20448;-69
2022/01/15 15:10:17;;;;;;;6.70;5.97;;;;;;;-143.84;46.60;45203.31;5090575;28;20827;-69
2022/01/15 15:12:49;;;;;;;11.10;7.00;;;;;;;-143.84;46.74;45186.16;5090287;28;20873;-70
2022/01/15 15:15:18;;;;;;;15.03;6.93;;;;;;;-143.84;46.92;45170.94;5090807;28;20452;-69
2022/01/15 15:17:46;;;;;;;9.93;7.07;;;;;;;-143.84;47.17;45195.69;5090843;28;20459;-70
2022/01/15 15:20:15;;;;;;;9.53;6.60;;;;;;;-143.84;47.20;45205.22;5088490;28;20556;-70
2022/01/15 15:22:43;;;;;;;9.67;7.17;;;;;;;-143.84;47.17;45201.41;5088754;28;20494;-70
2022/01/15 15:25:11;;;;;;;9.63;7.43;;;;;;;-143.84;46.87;45176.66;5089994;28;20447;-69
2022/01/15 15:27:39;;;;;;;12.70;7.27;;;;;;;-143.84;46.78;45203.31;5090813;28;20448;-70
2022/01/15 15:30:07;;;;;;;10.77;6.77;;;;;;;-143.84;46.95;45203.31;5091366;28;20458;-69
2022/01/15 15:32:37;;;;;;;13.17;8.20;;;;;;;-143.84;47.06;45201.41;5090539;28;20491;-70
2022/01/15 15:35:05;;;;;;;9.90;7.00;;;;;;;-143.84;47.06;45165.22;5089110;28;20455;-71
2022/01/15 15:37:33;;;;;;;18.63;9.30;;;;;;;-143.84;47.49;45180.47;5089289;28;20459;-70
2022/01/15 15:40:00;;;;;;;11.60;7.40;;;;;;;-143.84;47.88;45201.41;5090540;28;20504;-70
2022/01/15 15:42:27;;;;;;;14.50;8.77;;;;;;;-143.84;48.00;45209.03;5090570;28;20435;-70
2022/01/15 15:44:54;;;;;;;12.47;9.37;;;;;;;-143.84;48.24;45186.16;5089170;28;20443;-70
2022/01/15 15:47:22;;;;;;;12.30;9.13;;;;;;;-143.84;48.89;45189.97;5090252;28;20448;-71
2022/01/15 15:49:50;;;;;;;10.53;7.50;;;;;;;-143.84;49.18;45205.22;5090976;28;20833;-70
2022/01/15 15:52:19;;;;;;;12.63;7.87;;;;;;;-143.84;49.77;45184.25;5090561;28;20984;-69
2022/01/15 15:54:46;;;;;;;13.63;9.83;;;;;;;-143.84;50.28;45189.97;5090717;28;20443;-69
2022/01/15 15:57:13;;;;;;;10.37;7.23;;;;;;;-143.84;50.50;45216.63;5090164;28;20443;-69
2022/01/15 15:59:44;;;;;;;11.70;8.20;;;;;;;-143.84;51.04;45209.03;5090067;28;20810;-69
2022/01/15 16:02:12;;;;;;;11.77;8.13;;;;;;;-143.84;50.92;45216.63;5091582;28;20464;-72
2022/01/15 16:04:39;;;;;;;8.83;7.00;;;;;;;-143.84;51.49;45203.31;5092305;28;20814;-70
2022/01/15 16:07:08;;;;;;;12.23;8.60;;;;;;;-143.84;52.28;45220.44;5092826;28;20506;-70
2022/01/15 16:09:35;;;;;;;13.30;8.60;;;;;;;-143.84;52.26;45195.69;5092309;28;20454;-70
2022/01/15 16:12:03;;;;;;;12.87;7.73;;;;;;;-143.84;52.30;45216.63;5092992;28;21021;-71
2022/01/15 16:14:31;;;;;;;12.93;7.97;;;;;;;-143.84;52.48;45201.41;5093313;28;20450;-70
2022/01/15 16:17:00;;;;;;;10.37;7.90;;;;;;;-143.84;52.44;45199.50;5091370;28;20505;-72
2022/01/15 16:19:27;;;;;;;13.60;8.30;;;;;;;-143.84;52.58;45201.41;5089998;28;20448;-71
2022/01/15 16:21:54;;;;;;;10.97;7.60;;;;;;;-143.84;52.33;45197.59;5090833;28;21409;-71
2022/01/15 16:24:23;;;;;;;14.30;8.50;;;;;;;-143.84;52.13;45247.09;5090040;28;20463;-71
2022/01/15 16:26:50;;;;;;;10.63;7.73;;;;;;;-143.84;51.83;45222.34;5090558;28;20447;-71
2022/01/15 16:29:17;;;;;;;12.23;7.20;;;;;;;-143.84;51.93;45222.34;5090194;28;20455;-71
2022/01/15 16:31:45;;;;;;;13.67;7.70;;;;;;;-143.84;52.26;45205.22;5091198;28;20444;-71
2022/01/15 16:34:12;;;;;;;12.10;6.70;;;;;;;-143.84;51.91;45191.88;5091232;28;20463;-71
2022/01/15 16:36:39;;;;;;;7.57;6.43;;;;;;;-143.84;51.58;45231.88;5091664;28;20439;-70
2022/01/15 16:39:06;;;;;;;9.33;6.90;;;;;;;-143.84;51.61;45216.63;5090716;28;20533;-72
2022/01/15 16:41:35;;;;;;;13.17;7.50;;;;;;;-143.84;51.21;45252.81;5091317;28;20464;-72
2022/01/15 16:44:04;;;;;;;10.13;6.53;;;;;;;-143.84;50.57;45245.19;5089620;28;20448;-71
2022/01/15 16:46:31;;;;;;;15.00;7.13;;;;;;;-143.84;49.98;45195.69;5089447;28;20535;-71
2022/01/15 16:48:58;;;;;;;10.50;6.60;;;;;;;-143.84;49.48;45203.31;5088909;28;20985;-71
2022/01/15 16:51:25;;;;;;;13.40;7.03;;;;;;;-143.84;48.94;45205.22;5091002;28;20459;-71
2022/01/15 16:53:53;;;;;;;10.80;7.00;;;;;;;-143.84;48.65;45243.31;5091551;28;20498;-72
2022/01/15 16:56:20;;;;;;;11.10;7.60;;;;;;;-143.84;48.57;45237.59;5090946;28;20444;-72
2022/01/15 16:58:49;;;;;;;12.27;7.30;;;;;;;-143.84;48.94;45197.59;5091016;28;20452;-75
2022/01/15 17:01:16;;;;;;;15.27;6.80;;;;;;;-143.84;48.28;45210.94;5089673;28;20479;-72
2022/01/15 17:03:43;;;;;;;12.20;7.43;;;;;;;-143.84;48.03;45205.22;5089058;28;20439;-69
2022/01/15 17:06:11;;;;;;;10.40;6.03;;;;;;;-143.84;47.47;45239.50;5090373;28;20442;-70
2022/01/15 17:08:38;;;;;;;6.73;6.03;;;;;;;-143.84;47.52;45226.16;5090232;28;20453;-70
2022/01/15 17:11:06;;;;;;;9.70;5.93;;;;;;;-143.84;47.27;45224.25;5087614;28;20439;-70
2022/01/15 17:13:34;;;;;;;15.63;7.37;;;;;;;-143.84;47.81;45224.25;5070431;28;20521;-70
2022/01/15 17:16:02;;;;;;;10.07;6.43;;;;;;;-143.84;47.46;45239.50;5069876;28;20579;-70
2022/01/15 17:18:30;;;;;;;7.90;5.50;;;;;;;-143.84;47.52;45210.94;5070084;28;20455;-70
2022/01/15 17:20:58;;;;;;;12.87;7.10;;;;;;;-143.84;47.12;45235.69;5068949;28;20441;-70
2022/01/15 17:23:28;;;;;;;6.20;4.90;;;;;;;-143.84;46.58;45228.06;5069933;28;20499;-70
2022/01/15 17:25:55;;;;;;;9.20;5.90;;;;;;;-143.84;46.72;45218.53;5070191;28;20450;-70
2022/01/15 17:28:22;;;;;;;6.47;4.40;;;;;;;-143.84;46.86;45212.84;5070266;28;20468;-70
2022/01/15 17:30:50;;;;;;;8.33;5.03;;;;;;;-143.84;46.75;45201.41;5068767;28;20444;-70
2022/01/15 17:33:18;;;;;;;13.73;5.97;;;;;;;-143.84;46.78;45205.22;5067867;28;21366;-70
2022/01/15 17:35:45;;;;;;;8.57;5.27;;;;;;;-143.84;46.56;45250.91;5068360;28;21023;-70
2022/01/15 17:38:13;;;;;;;8.77;6.13;;;;;;;-143.84;46.36;45220.44;5068708;28;20443;-72
2022/01/15 17:40:40;;;;;;;7.57;5.30;;;;;;;-143.84;45.61;45197.59;5068490;28;20440;-72
2022/01/15 17:43:07;;;;;;;6.80;5.07;;;;;;;-143.84;46.26;45256.63;5068834;28;20967;-72
2022/01/15 17:45:34;;;;;;;7.93;5.50;;;;;;;-143.84;46.19;45256.63;5069076;28;20482;-72
2022/01/15 17:48:01;;;;;;;8.03;4.90;;;;;;;-143.84;46.42;45210.94;5069702;28;20440;-72
2022/01/15 17:50:30;;;;;;;11.70;6.53;;;;;;;-143.84;46.18;45226.16;5069566;28;20459;-72
2022/01/15 17:52:58;;;;;;;13.23;5.97;;;;;;;-143.84;46.11;45224.25;5069493;28;21213;-72
2022/01/15 17:55:25;;;;;;;8.23;5.73;;;;;;;-143.84;45.45;45216.63;5069408;28;20421;-72
2022/01/15 17:57:52;;;;;;;7.83;4.90;;;;;;;-143.84;45.83;45203.31;5069245;28;20436;-72
2022/01/15 18:00:20;;;;;;;9.43;5.87;;;;;;;-143.84;45.18;45252.81;5068961;28;20475;-72
2022/01/15 18:02:47;;;;;;;8.10;5.63;;;;;;;-143.84;45.62;45237.59;5069162;28;20455;-72
2022/01/15 18:05:15;;;;;;;12.17;4.97;;;;;;;-143.84;46.13;45207.13;5069501;28;20764;-72
2022/01/15 18:07:45;;;;;;;12.63;6.07;;;;;;;-143.84;46.21;45218.53;5069115;28;20440;-72
2022/01/15 18:10:17;;;;;;;7.40;5.17;;;;;;;-143.84;46.43;45220.44;5069397;28;20449;-72
2022/01/15 18:12:45;;;;;;;7.93;5.00;;;;;;;-143.84;45.96;45243.31;5069065;28;20436;-72
2022/01/15 18:15:13;;;;;;;13.40;5.50;;;;;;;-143.84;45.80;45235.69;5069262;28;20778;-72
2022/01/15 18:17:40;;;;;;;11.17;4.70;;;;;;;-143.84;45.69;45220.44;5069247;28;20551;-72
2022/01/15 18:20:09;;;;;;;7.63;5.07;;;;;;;-143.84;46.06;45205.22;5068952;28;20468;-72
2022/01/15 18:22:36;;;;;;;7.50;5.10;;;;;;;-143.84;46.38;45209.03;5069198;28;20437;-72
2022/01/15 18:25:06;;;;;;;6.67;4.57;;;;;;;-143.84;46.43;45226.16;5069216;28;20873;-72
2022/01/15 18:27:33;;;;;;;8.27;5.10;;;;;;;-143.84;46.46;45239.50;5069345;28;20452;-72
2022/01/15 18:30:01;;;;;;;10.43;6.20;;;;;;;-143.84;46.55;45220.44;5069205;28;20443;-72
2022/01/15 18:32:30;;;;;;;8.57;5.47;;;;;;;-143.84;46.52;45249.00;5071481;28;20440;-72
2022/01/15 18:34:58;;;;;;;18.67;8.17;;;;;;;-143.84;46.83;45239.50;5073521;28;20603;-72
2022/01/15 18:37:25;;;;;;;15.10;7.03;;;;;;;-143.84;46.94;45222.34;5072941;28;20978;-71
2022/01/15 18:39:52;;;;;;;8.27;6.00;;;;;;;-143.84;46.63;45229.97;5073210;28;20440;-72
2022/01/15 18:42:21;;;;;;;9.20;5.70;;;;;;;-143.84;46.46;45199.50;5073044;28;20447;-72
2022/01/15 18:44:48;;;;;;;12.13;6.00;;;;;;;-143.84;46.46;45241.41;5072974;28;20871;-72
2022/01/15 18:47:15;;;;;;;9.10;4.83;;;;;;;-143.84;46.36;45252.81;5072935;28;20432;-72
2022/01/15 18:49:42;;;;;;;9.47;5.33;;;;;;;-143.84;46.36;45228.06;5072833;28;20448;-72
2022/01/15 18:52:10;;;;;;;7.73;5.00;;;;;;;-143.84;46.84;45249.00;5072905;28;20510;-72
2022/01/15 18:54:37;;;;;;;5.77;4.83;;;;;;;-143.84;46.71;45249.00;5072820;28;20480;-71
2022/01/15 18:57:04;;;;;;;5.70;4.33;;;;;;;-143.84;46.12;45237.59;5072727;28;20522;-72
2022/01/15 18:59:33;;;;;;;8.70;5.73;;;;;;;-143.84;46.26;45235.69;5072592;28;20441;-72
2022/01/15 19:02:02;;;;;;;6.80;4.93;;;;;;;-143.84;45.73;45249.00;5072587;28;20498;-72
2022/01/15 19:04:29;;;;;;;8.47;4.83;;;;;;;-143.84;46.49;45222.34;5072652;28;20825;-72
2022/01/15 19:06:56;;;;;;;8.63;5.13;;;;;;;-143.84;46.83;45220.44;5072613;28;20447;-72
2022/01/15 19:09:24;;;;;;;6.97;5.30;;;;;;;-143.84;46.95;45231.88;5072576;28;20537;-72
2022/01/15 19:11:51;;;;;;;9.37;5.37;;;;;;;-143.84;46.79;45220.44;5072388;28;20448;-72
2022/01/15 19:14:20;;;;;;;7.17;5.77;;;;;;;-143.84;47.29;45222.34;5072336;28;20496;-72
2022/01/15 19:16:48;;;;;;;8.20;5.50;;;;;;;-143.84;47.02;45216.63;5071285;28;20534;-71
2022/01/15 19:19:16;;;;;;;7.47;5.40;;;;;;;-143.84;48.00;45262.34;5071869;28;20458;-71
2022/01/15 19:21:44;;;;;;;9.23;5.70;;;;;;;-143.84;48.08;45256.63;5072061;28;20454;-72
2022/01/15 19:24:15;;;;;;;8.93;5.67;;;;;;;-143.84;48.43;45237.59;5072024;28;20442;-71
2022/01/15 19:26:42;;;;;;;6.53;5.10;;;;;;;-143.84;48.46;45231.88;5071326;28;20444;-72
2022/01/15 19:29:10;;;;;;;7.17;5.20;;;;;;;-143.84;48.40;45258.53;5071763;28;20430;-70
2022/01/15 19:31:37;;;;;;;7.27;5.37;;;;;;;-143.84;48.65;45224.25;5071663;28;20440;-70
2022/01/15 19:34:06;;;;;;;9.77;5.50;;;;;;;-143.84;48.75;45235.69;5071691;28;20939;-70
2022/01/15 19:36:34;;;;;;;10.40;4.83;;;;;;;-143.84;49.51;45218.53;5071550;28;20455;-70
2022/01/15 19:39:01;;;;;;;8.40;5.90;;;;;;;-143.84;48.91;45235.69;5071783;28;20434;-70
2022/01/15 19:41:29;;;;;;;7.73;6.03;;;;;;;-143.84;48.98;45239.50;5071703;28;20442;-70
2022/01/15 19:43:56;;;;;;;8.80;4.90;;;;;;;-143.84;49.27;45256.63;5070621;28;20433;-70
2022/01/15 19:46:23;;;;;;;6.73;4.70;;;;;;;-143.84;48.85;45235.69;5071657;28;20464;-70
2022/01/15 19:48:51;;;;;;;9.50;5.53;;;;;;;-143.84;48.88;45258.53;5071554;28;20429;-70
2022/01/15 19:51:20;;;;;;;8.40;4.37;;;;;;;-143.84;48.25;45233.78;5071013;28;20950;-70
2022/01/15 19:53:48;;;;;;;6.37;4.90;;;;;;;-143.84;47.90;45241.41;5075507;28;20989;-70
2022/01/15 19:56:17;;;;;;;9.47;4.53;;;;;;;-143.84;47.80;45214.72;5090680;28;20440;-70
2022/01/15 19:58:45;;;;;;;8.13;5.40;;;;;;;-143.84;47.90;45228.06;5093079;28;20445;-69
2022/01/15 20:01:12;;;;;;;9.50;5.73;;;;;;;-143.84;47.66;45229.97;5092455;28;20471;-70
2022/01/15 20:03:39;;;;;;;7.93;4.27;;;;;;;-143.84;47.54;45224.25;5092724;28;20445;-69
2022/01/15 20:06:06;;;;;;;9.83;5.30;;;;;;;-143.84;47.36;45224.25;5092683;28;20443;-69
2022/01/15 20:08:36;;;;;;;10.07;5.20;;;;;;;-143.84;47.05;45258.53;5092509;28;20444;-70
2022/01/15 20:11:04;;;;;;;10.70;5.73;;;;;;;-143.84;47.23;45224.25;5092633;28;20437;-69
2022/01/15 20:13:32;;;;;;;12.90;5.03;;;;;;;-143.84;47.28;45229.97;5093219;28;20463;-69
2022/01/15 20:15:59;;;;;;;9.77;5.30;;;;;;;-143.84;47.99;45245.19;5093071;28;20429;-70
2022/01/15 20:18:26;;;;;;;6.97;5.50;;;;;;;-143.84;48.67;45233.78;5092974;28;20432;-70
2022/01/15 20:20:54;;;;;;;7.23;5.00;;;;;;;-143.84;48.11;45235.69;5092821;28;20437;-70
2022/01/15 20:23:22;;;;;;;5.40;4.70;;;;;;;-143.84;49.07;45218.53;5092024;28;21033;-70
2022/01/15 20:25:51;;;;;;;6.23;4.83;;;;;;;-143.84;48.84;45214.72;5091957;28;20441;-69
2022/01/15 20:28:19;;;;;;;9.77;5.77;;;;;;;-143.84;49.33;45249.00;5092418;28;21199;-70
2022/01/15 20:30:47;;;;;;;12.43;5.40;;;;;;;-143.84;49.88;45254.72;5091144;28;20441;-70
2022/01/15 20:33:14;;;;;;;12.27;5.73;;;;;;;-143.84;50.31;45252.81;5092276;28;20865;-70
2022/01/15 20:35:41;;;;;;;9.47;5.77;;;;;;;-143.84;49.82;45258.53;5092440;28;20438;-71
2022/01/15 20:38:08;;;;;;;10.27;5.90;;;;;;;-143.84;50.45;45218.53;5091401;28;20429;-70
2022/01/15 20:40:36;;;;;;;9.27;5.33;;;;;;;-143.84;50.23;45245.19;5091782;28;20437;-71
2022/01/15 20:43:05;;;;;;;8.93;5.53;;;;;;;-143.84;50.30;45252.81;5091041;28;20951;-70
2022/01/15 20:45:32;;;;;;;12.37;6.37;;;;;;;-143.84;51.08;45243.31;5091736;28;20443;-70
2022/01/15 20:48:01;;;;;;;10.53;5.43;;;;;;;-143.84;50.81;45226.16;5090453;28;20444;-70
2022/01/15 20:50:29;;;;;;;10.40;6.00;;;;;;;-143.84;50.99;45252.81;5091979;28;20544;-69
2022/01/15 20:52:56;;;;;;;10.60;6.10;;;;;;;-143.84;50.88;45247.09;5090234;28;20801;-70
2022/01/15 20:55:24;;;;;;;10.83;5.50;;;;;;;-143.84;51.27;45247.09;5090094;28;21087;-69
2022/01/15 20:57:51;;;;;;;10.47;6.13;;;;;;;-143.84;51.44;45231.88;5089223;28;20440;-69
2022/01/15 21:00:22;;;;;;;9.03;5.43;;;;;;;-143.84;51.42;45229.97;5090738;28;20483;-68
2022/01/15 21:02:50;;;;;;;11.33;5.50;;;;;;;-143.84;51.07;45254.72;5092062;28;21156;-68
2022/01/15 21:05:17;;;;;;;11.00;5.30;;;;;;;-143.84;51.26;45252.81;5091171;28;20925;-69
2022/01/15 21:07:44;;;;;;;6.57;4.93;;;;;;;-143.84;51.56;45233.78;5090981;28;20933;-69
2022/01/15 21:10:12;;;;;;;11.23;6.80;;;;;;;-143.84;51.74;45254.72;5090917;28;20441;-69
2022/01/15 21:12:40;;;;;;;11.23;6.47;;;;;;;-143.84;51.32;45222.34;5090436;28;20440;-69
2022/01/15 21:15:09;;;;;;;11.43;6.33;;;;;;;-143.84;51.71;45233.78;5090880;28;20467;-69
2022/01/15 21:17:38;;;;;;;11.50;6.00;;;;;;;-143.84;51.51;45245.19;5091429;28;20498;-69
2022/01/15 21:20:07;;;;;;;19.30;6.83;;;;;;;-143.84;51.78;45260.44;5087198;28;20541;-69
2022/01/15 21:22:35;;;;;;;14.13;7.77;;;;;;;-143.84;51.68;45226.16;5086892;28;20509;-69
2022/01/15 21:25:03;;;;;;;21.00;6.27;;;;;;;-143.84;51.73;45228.06;5091968;28;20436;-69
2022/01/15 21:27:30;;;;;;;10.47;7.00;;;;;;;-143.84;51.53;45254.72;5103723;28;20538;-69
2022/01/15 21:29:57;;;;;;;11.30;6.80;;;;;;;-143.84;51.74;45229.97;5112643;28;20450;-69
2022/01/15 21:32:25;;;;;;;12.57;5.97;;;;;;;-143.84;51.75;45243.31;5112302;28;20428;-69
2022/01/15 21:34:54;;;;;;;10.50;6.40;;;;;;;-143.84;51.67;45250.91;5112072;28;20475;-69
2022/01/15 21:37:21;;;;;;;10.20;6.53;;;;;;;-143.84;51.59;45271.88;5112305;28;20431;-69
2022/01/15 21:39:49;;;;;;;10.33;6.40;;;;;;;-143.84;51.84;45216.63;5112185;27;20444;-69
2022/01/15 21:42:17;;;;;;;13.60;5.97;;;;;;;-143.84;51.87;45228.06;5095855;28;20960;-70
2022/01/15 21:44:45;;;;;;;11.70;6.50;;;;;;;-143.84;52.16;45241.41;5090480;28;20475;-69
2022/01/15 21:47:13;;;;;;;11.80;6.10;;;;;;;-143.84;52.08;45258.53;5089722;28;20965;-69
2022/01/15 21:49:40;;;;;;;14.20;7.80;;;;;;;-143.84;52.10;45235.69;5091950;28;20813;-69
2022/01/15 21:52:10;;;;;;;14.20;7.50;;;;;;;-143.84;52.36;45243.31;5091994;28;21265;-69
2022/01/15 21:54:37;;;;;;;12.10;6.20;;;;;;;-143.84;52.27;45229.97;5091236;28;20479;-69
2022/01/15 21:57:05;;;;;;;12.47;6.23;;;;;;;-143.84;52.13;45235.69;5091987;28;20440;-70
2022/01/15 21:59:32;;;;;;;9.23;6.23;;;;;;;-143.84;52.19;45239.50;5091887;28;20460;-69
2022/01/15 22:01:59;;;;;;;17.90;7.87;;;;;;;-143.84;52.05;45254.72;5090964;28;20491;-69
2022/01/15 22:04:27;;;;;;;15.40;7.10;;;;;;;-143.84;52.35;45233.78;5091420;28;20501;-69
2022/01/15 22:06:54;;;;;;;10.07;6.33;;;;;;;-143.84;52.35;45258.53;5079113;28;20461;-70
2022/01/15 22:09:23;;;;;;;14.20;6.77;;;;;;;-143.84;52.61;45243.31;5087089;28;20459;-69
2022/01/15 22:11:52;;;;;;;12.40;6.63;;;;;;;-143.84;52.98;45235.69;5091314;28;20486;-69
2022/01/15 22:14:19;;;;;;;10.47;6.80;;;;;;;-143.84;53.59;45277.56;5090599;28;20483;-69
2022/01/15 22:16:48;;;;;;;9.93;6.33;;;;;;;-143.84;54.07;45231.88;5090511;28;20447;-69
2022/01/15 22:19:17;;;;;;;8.27;6.40;;;;;;;-143.84;53.75;45249.00;5091023;28;20448;-69
2022/01/15 22:21:45;;;;;;;10.70;7.13;;;;;;;-143.84;54.40;45222.34;5090171;28;20523;-69
2022/01/15 22:24:14;;;;;;;15.10;6.47;;;;;;;-143.84;54.93;45243.31;5090092;28;20447;-70
2022/01/15 22:26:43;;;;;;;14.20;6.70;;;;;;;-143.84;55.13;45239.50;5089525;28;20997;-69
2022/01/15 22:29:13;;;;;;;8.93;5.97;;;;;;;-143.84;55.40;45247.09;5090355;28;20868;-69
2022/01/15 22:31:41;;;;;;;12.10;6.97;;;;;;;-143.84;55.47;45250.91;5090064;28;20650;-70
2022/01/15 22:34:10;;;;;;;10.60;6.00;;;;;;;-143.84;56.10;45239.50;5087863;28;20432;-69
2022/01/15 23:44:54;;;;;;;17.43;6.10;;;;;;;-143.84;57.07;45226.16;5113844;27;20810;-69
2022/01/15 23:47:22;;;;;;;9.73;5.73;;;;;;;-143.84;57.49;45281.38;5099117;28;20470;-69
2022/01/15 23:49:49;;;;;;;9.33;5.53;;;;;;;-143.84;57.19;45239.50;5114217;28;20430;-69
2022/01/15 23:52:16;;;;;;;12.40;5.20;;;;;;;-143.84;57.32;45247.09;5113900;28;20811;-69
2022/01/15 23:54:44;;;;;;;10.33;5.73;;;;;;;-143.84;57.32;45243.31;5113787;28;20478;-70
2022/01/15 23:57:11;;;;;;;13.63;6.10;;;;;;;-143.84;56.88;45224.25;5114077;28;20783;-69
2022/01/15 23:59:39;;;;;;;9.50;4.90;;;;;;;-143.84;56.77;45250.91;5114000;28;20431;-69
